x

Ilm2 - 5 Miles Se Of Wrightsville Beach, Nc (41038) Weather Station

3:08 - Thu 19th Jan 2017 All times are EST. -5 hours from GMT.

  • Wind
    9mph, 13mph gusts
  • Luft Temp 53°f
  • Sea Pressure 1017.1mb
  • Ilm2 - 5 Miles Se Of Wrightsville Beach, Nc
  • Ilm2 - 5 Miles Se Of Wrightsville Beach, Nc

More Historic Weather Station data

Upgrade to MSW Pro to gain access to the past 30 days of data for over 8000 Wavebouys and Weather Stations around the globe.

Join Pro

Comparision Forecast

View Surf forecast
   
Do 01/19 3:08 9 13 mph 1017.1mb 53f
1:08 4 9 mph 1017.1mb 55f
Mi 01/18 11:08 9 13 mph 1017.5mb 55f
4:08 11 18 mph 1013.1mb 64f
12:08 11 13 mph 1014.2mb 57f
11:08 9 16 mph 1015.4mb 58f
9:08 16 22 mph 1015.6mb 58f
5:08 16 20 mph 1016.5mb 59f
3:08 16 25 mph 1016.9mb 59f
1:08 13 18 mph 1018mb 58f
12:08 13 20 mph 1018.8mb 58f
Di 01/17 11:08 13 22 mph 1019.6mb 59f
10:08 13 18 mph 1020.6mb 58f
8:08 7 11 mph 1021.2mb 57f
5:08 11 18 mph 1021.6mb 58f
4:08 9 13 mph 1021.1mb 59f
3:08 7 9 mph 1021.4mb 60f
1:08 4 9 mph 1022.7mb 54f
12:08 7 9 mph 1023.6mb 53f
11:08 7 9 mph 1024.4mb 53f
10:08 9 11 mph 1024.8mb 53f
9:08 7 9 mph 1024.6mb 53f
6:08 11 13 mph 1024mb 52f
5:08 9 11 mph 1023.8mb 53f
3:08 9 13 mph 1024.7mb 52f
12:08 7 9 mph 1026mb 53f
Mo 01/16 10:08 11 16 mph 1026.8mb 54f
9:08 11 16 mph 1027.2mb 54f
8:08 13 18 mph 1027.5mb 54f
7:08 11 20 mph 1027.7mb 54f
4:08 11 18 mph 1027.9mb 53f
12:08 13 27 mph 1029.1mb 50f
8:08 18 31 mph 1028.5mb 49f
7:08 16 27 mph 1028.1mb 49f
5:08 18 29 mph 1027.6mb 49f
4:08 16 27 mph 1027.1mb 50f
3:08 13 25 mph 1027.3mb 51f
2:08 11 22 mph 1027.1mb 51f
So 01/15 11:08 13 20 mph 1027.1mb 52f
10:08 13 25 mph 1027.2mb 53f
9:08 13 25 mph 1027.5mb 53f
6:08 11 20 mph 1026.8mb 54f
5:08 11 18 mph 1026.3mb 55f
4:08 13 22 mph 1025.9mb 55f
1:08 4 9 mph 1025.6mb 54f
12:08 4 7 mph 1025.9mb 54f
11:08 13 18 mph 1027mb 53f